Time;durP1;ratioP1;P1;durP2;ratioP2;P2;SDS_P1;SDS_P2;PMS_P1;PMS_P2;Temp;Humidity;BMP_temperature;BMP_pressure;BME280_temperature;BME280_humidity;BME280_pressure;Samples;Min_cycle;Max_cycle;Signal;HPM_P1;HPM_P2
2024/02/11 00:02:25;;;;;;;6.03;3.00;;;;;;;;;;4823697;29;20050;-84
2024/02/11 00:04:55;;;;;;;9.25;3.28;;;;;;;;;;4822994;29;20514;-83
2024/02/11 00:07:25;;;;;;;9.75;3.00;;;;;;;;;;4836165;29;20057;-84
2024/02/11 00:09:57;;;;;;;6.88;2.42;;;;;;;;;;4843298;29;20050;-83
2024/02/11 00:12:27;;;;;;;8.05;2.25;;;;;;;;;;4842147;29;20049;-84
2024/02/11 00:14:57;;;;;;;7.30;2.50;;;;;;;;;;4852761;29;20420;-83
2024/02/11 00:17:27;;;;;;;5.88;3.20;;;;;;;;;;4820055;29;20055;-83
2024/02/11 00:19:59;;;;;;;7.10;2.80;;;;;;;;;;4821448;29;20500;-82
2024/02/11 00:22:30;;;;;;;10.82;3.50;;;;;;;;;;4823363;29;20500;-84
2024/02/11 00:50:56;;;;;;;10.13;3.20;;;;;;;;;;5006545;23;19923;-83
2024/02/11 00:53:26;;;;;;;7.35;2.83;;;;;;;;;;4897969;29;20048;-83
2024/02/11 00:55:56;;;;;;;6.80;2.83;;;;;;;;;;4896357;29;20052;-82
2024/02/11 00:58:26;;;;;;;10.90;3.28;;;;;;;;;;4895671;29;20514;-83
2024/02/11 01:00:57;;;;;;;5.68;2.88;;;;;;;;;;4897837;29;20494;-82
2024/02/11 01:03:29;;;;;;;7.20;3.10;;;;;;;;;;4897708;29;20056;-82
2024/02/11 01:06:00;;;;;;;7.97;3.00;;;;;;;;;;4881310;29;20053;-82
2024/02/11 01:08:31;;;;;;;7.40;2.88;;;;;;;;;;4897854;29;20040;-83
2024/02/11 01:11:00;;;;;;;7.45;3.30;;;;;;;;;;4897761;29;20047;-82
2024/02/11 01:13:31;;;;;;;6.05;3.00;;;;;;;;;;4883048;29;20134;-82
2024/02/11 01:16:01;;;;;;;5.10;2.83;;;;;;;;;;4897750;29;20056;-82
2024/02/11 01:18:31;;;;;;;11.32;3.20;;;;;;;;;;4902880;29;20044;-82
2024/02/11 01:21:01;;;;;;;7.03;3.88;;;;;;;;;;4898842;29;20048;-83
2024/02/11 01:23:32;;;;;;;8.32;4.00;;;;;;;;;;4916535;29;20060;-83
2024/02/11 01:26:02;;;;;;;7.80;3.53;;;;;;;;;;4916374;29;20051;-82
2024/02/11 01:28:32;;;;;;;5.80;3.03;;;;;;;;;;4915880;29;20052;-83
2024/02/11 01:31:02;;;;;;;9.35;3.03;;;;;;;;;;4916631;29;20044;-83
2024/02/11 01:33:32;;;;;;;5.40;3.40;;;;;;;;;;4930438;29;20048;-83
2024/02/11 01:36:03;;;;;;;7.68;2.80;;;;;;;;;;4916421;29;20515;-83
2024/02/11 01:38:33;;;;;;;6.18;2.80;;;;;;;;;;4916346;29;20055;-82
2024/02/11 01:41:04;;;;;;;6.13;2.60;;;;;;;;;;4915946;29;20052;-82
2024/02/11 01:43:35;;;;;;;4.10;2.50;;;;;;;;;;4915515;29;20051;-82
2024/02/11 01:46:05;;;;;;;7.63;3.05;;;;;;;;;;4913928;29;20048;-82
2024/02/11 01:48:36;;;;;;;11.23;3.22;;;;;;;;;;4915199;29;20048;-83
2024/02/11 01:51:07;;;;;;;6.07;2.90;;;;;;;;;;4915229;29;20507;-82
2024/02/11 01:53:41;;;;;;;10.38;2.95;;;;;;;;;;4915477;29;20071;-82
2024/02/11 01:56:11;;;;;;;8.02;3.00;;;;;;;;;;4916145;29;20377;-80
2024/02/11 01:58:43;;;;;;;8.18;3.25;;;;;;;;;;4915700;29;20051;-80
2024/02/11 02:01:17;;;;;;;8.80;2.92;;;;;;;;;;4916058;29;20040;-82
2024/02/11 02:03:49;;;;;;;7.28;2.58;;;;;;;;;;4913617;29;20043;-82
2024/02/11 02:06:22;;;;;;;7.18;2.83;;;;;;;;;;4915017;29;20059;-83
2024/02/11 02:08:53;;;;;;;6.68;3.00;;;;;;;;;;4915775;29;20044;-82
2024/02/11 02:11:23;;;;;;;7.05;2.92;;;;;;;;;;4916042;29;20061;-82
2024/02/11 02:13:54;;;;;;;6.78;2.92;;;;;;;;;;4915598;29;20048;-81
2024/02/11 02:16:24;;;;;;;6.43;2.92;;;;;;;;;;4915612;29;20056;-82
2024/02/11 02:18:55;;;;;;;28.90;3.53;;;;;;;;;;4915452;29;20110;-83
2024/02/11 02:21:25;;;;;;;7.75;2.90;;;;;;;;;;4929888;29;20064;-82
2024/02/11 02:23:56;;;;;;;10.55;3.08;;;;;;;;;;4898998;29;20057;-82
2024/02/11 02:26:26;;;;;;;8.07;2.92;;;;;;;;;;4915722;29;20499;-82
2024/02/11 02:28:56;;;;;;;5.63;2.53;;;;;;;;;;4915697;29;20044;-83
2024/02/11 02:31:26;;;;;;;6.68;2.65;;;;;;;;;;4915643;29;20051;-83
2024/02/11 02:33:56;;;;;;;6.85;2.58;;;;;;;;;;4915539;29;20609;-83
2024/02/11 02:36:27;;;;;;;5.43;2.78;;;;;;;;;;4899288;29;20495;-83
2024/02/11 02:38:57;;;;;;;5.95;2.95;;;;;;;;;;4915604;29;20529;-82
2024/02/11 02:41:27;;;;;;;6.70;3.03;;;;;;;;;;4915398;29;20063;-83
2024/02/11 02:43:58;;;;;;;10.02;3.17;;;;;;;;;;4915833;29;20495;-83
2024/02/11 02:46:52;;;;;;;8.35;3.20;;;;;;;;;;4915424;29;20056;-82
2024/02/11 02:49:35;;;;;;;6.28;3.20;;;;;;;;;;4897408;29;20410;-82
2024/02/11 02:52:07;;;;;;;6.07;3.22;;;;;;;;;;4915651;29;20048;-82
2024/02/11 02:54:38;;;;;;;8.40;3.97;;;;;;;;;;4915349;29;20048;-82
2024/02/11 02:57:10;;;;;;;8.50;4.05;;;;;;;;;;4915336;29;20048;-83
2024/02/11 02:59:42;;;;;;;11.35;4.15;;;;;;;;;;4915334;29;20056;-82
2024/02/11 03:02:12;;;;;;;7.72;4.20;;;;;;;;;;4916349;29;20048;-83
2024/02/11 03:04:45;;;;;;;14.82;4.07;;;;;;;;;;4902072;29;20506;-82
2024/02/11 03:07:14;;;;;;;;;;;;;;;;;;4908014;29;20061;-82
2024/02/11 03:09:44;;;;;;;6.13;3.83;;;;;;;;;;4897058;29;19924;-82
2024/02/11 03:12:15;;;;;;;10.77;4.57;;;;;;;;;;4900897;29;20053;-83
2024/02/11 03:14:45;;;;;;;10.35;4.53;;;;;;;;;;4900828;29;20539;-83
2024/02/11 03:17:15;;;;;;;10.75;4.72;;;;;;;;;;4901173;29;20059;-82
2024/02/11 03:19:45;;;;;;;9.35;4.43;;;;;;;;;;4899355;29;20423;-82
2024/02/11 03:22:17;;;;;;;12.50;4.78;;;;;;;;;;4901184;29;20055;-83
2024/02/11 03:24:47;;;;;;;8.48;4.38;;;;;;;;;;4900869;29;20057;-82
2024/02/11 03:27:17;;;;;;;9.00;4.80;;;;;;;;;;4914876;29;20056;-82
2024/02/11 03:29:47;;;;;;;7.05;3.67;;;;;;;;;;4900938;29;20075;-82
2024/02/11 03:32:17;;;;;;;9.23;4.28;;;;;;;;;;4900626;29;20050;-82
2024/02/11 03:34:46;;;;;;;8.52;4.05;;;;;;;;;;4900837;29;20509;-83
2024/02/11 03:37:16;;;;;;;8.93;4.03;;;;;;;;;;4900499;29;20423;-82
2024/02/11 03:39:49;;;;;;;10.95;4.15;;;;;;;;;;4900280;29;20162;-83
2024/02/11 03:42:20;;;;;;;14.73;4.63;;;;;;;;;;4900553;29;20036;-82
2024/02/11 03:44:50;;;;;;;9.30;4.22;;;;;;;;;;4900837;29;20071;-83
2024/02/11 03:47:19;;;;;;;8.27;3.97;;;;;;;;;;4900311;29;20433;-83
2024/02/11 03:49:52;;;;;;;10.75;4.07;;;;;;;;;;4908116;29;20072;-83
2024/02/11 03:52:23;;;;;;;8.45;3.75;;;;;;;;;;4919055;29;20052;-83
2024/02/11 03:54:55;;;;;;;9.73;4.15;;;;;;;;;;4919025;29;20052;-83
2024/02/11 03:57:25;;;;;;;7.97;3.70;;;;;;;;;;4933186;29;20517;-83
2024/02/11 03:59:55;;;;;;;9.43;3.97;;;;;;;;;;4918956;29;20040;-83
2024/02/11 04:02:25;;;;;;;11.55;4.18;;;;;;;;;;4902521;29;20390;-83
2024/02/11 04:04:56;;;;;;;8.85;3.45;;;;;;;;;;4919633;29;20063;-83
2024/02/11 04:07:26;;;;;;;7.18;3.85;;;;;;;;;;4918848;29;20513;-82
2024/02/11 04:10:02;;;;;;;10.93;4.13;;;;;;;;;;4932887;29;20052;-83
2024/02/11 04:12:32;;;;;;;7.43;3.45;;;;;;;;;;4919202;29;20044;-83
2024/02/11 04:15:02;;;;;;;10.60;4.63;;;;;;;;;;4918843;29;20048;-83
2024/02/11 04:17:36;;;;;;;10.60;4.15;;;;;;;;;;4918634;29;20043;-83
2024/02/11 04:20:15;;;;;;;6.95;3.78;;;;;;;;;;4919001;29;20044;-82
2024/02/11 04:22:47;;;;;;;7.88;3.63;;;;;;;;;;4918688;29;20495;-83
2024/02/11 04:25:20;;;;;;;7.40;3.63;;;;;;;;;;4918440;29;20371;-83
2024/02/11 04:28:23;;;;;;;6.55;3.25;;;;;;;;;;4918460;29;20051;-83
2024/02/11 04:31:48;;;;;;;10.40;4.05;;;;;;;;;;4912616;29;20063;-83
2024/02/11 04:34:21;;;;;;;10.55;3.97;;;;;;;;;;4918332;29;20080;-83
2024/02/11 04:36:52;;;;;;;12.35;3.20;;;;;;;;;;4918263;29;20055;-83
2024/02/11 04:39:22;;;;;;;13.43;4.50;;;;;;;;;;4916009;29;20056;-83
2024/02/11 04:41:52;;;;;;;9.25;3.90;;;;;;;;;;4918224;29;20044;-83
2024/02/11 04:44:26;;;;;;;8.23;3.28;;;;;;;;;;4918629;29;20078;-83
2024/02/11 04:47:00;;;;;;;6.78;3.58;;;;;;;;;;4900653;29;20059;-83
2024/02/11 04:49:31;;;;;;;9.00;3.50;;;;;;;;;;4918132;29;20056;-83
2024/02/11 04:52:02;;;;;;;10.55;3.40;;;;;;;;;;4900717;29;20052;-83
2024/02/11 04:54:32;;;;;;;13.73;3.83;;;;;;;;;;4917892;29;20052;-84
2024/02/11 04:57:04;;;;;;;;;;;;;;;;;;4918568;29;20514;-83
2024/02/11 04:59:35;;;;;;;18.55;3.85;;;;;;;;;;4917521;29;20374;-83
2024/02/11 05:02:05;;;;;;;;;;;;;;;;;;4932570;29;20060;-83
2024/02/11 05:04:35;;;;;;;8.82;3.92;;;;;;;;;;4917987;29;19946;-83
2024/02/11 05:07:07;;;;;;;11.20;3.58;;;;;;;;;;4931827;29;20051;-83
2024/02/11 05:09:45;;;;;;;10.60;3.85;;;;;;;;;;4917864;29;20044;-83
2024/02/11 05:12:17;;;;;;;12.18;3.97;;;;;;;;;;4917919;29;20386;-83
2024/02/11 05:14:48;;;;;;;13.98;4.30;;;;;;;;;;4931828;29;20060;-82
2024/02/11 05:17:19;;;;;;;12.85;3.95;;;;;;;;;;4917894;29;20044;-83
2024/02/11 05:19:50;;;;;;;8.57;3.30;;;;;;;;;;4915594;29;20056;-83
2024/02/11 05:22:25;;;;;;;13.73;4.32;;;;;;;;;;4917608;29;20352;-83
2024/02/11 05:24:57;;;;;;;11.98;4.00;;;;;;;;;;4917205;29;20052;-82
2024/02/11 05:27:27;;;;;;;7.57;3.88;;;;;;;;;;4916674;29;20063;-83
2024/02/11 05:29:59;;;;;;;8.27;3.97;;;;;;;;;;4918017;29;20051;-83
2024/02/11 05:32:29;;;;;;;15.38;3.78;;;;;;;;;;4917253;29;20047;-83
2024/02/11 05:35:01;;;;;;;8.43;4.07;;;;;;;;;;4916478;29;20055;-83
2024/02/11 05:37:31;;;;;;;11.15;3.75;;;;;;;;;;4917392;29;20056;-84
2024/02/11 05:40:09;;;;;;;12.80;4.03;;;;;;;;;;4917741;29;20402;-83
2024/02/11 05:42:42;;;;;;;8.05;3.75;;;;;;;;;;4917098;29;20062;-84
2024/02/11 05:45:13;;;;;;;9.23;3.67;;;;;;;;;;4917759;29;20051;-84
2024/02/11 05:47:44;;;;;;;13.32;3.63;;;;;;;;;;4917096;29;20048;-83
2024/02/11 05:50:14;;;;;;;7.57;3.42;;;;;;;;;;4930923;29;20052;-84
2024/02/11 05:52:46;;;;;;;10.98;3.63;;;;;;;;;;4930493;29;20044;-84
2024/02/11 05:55:16;;;;;;;8.95;3.60;;;;;;;;;;4916942;29;20074;-84
2024/02/11 05:57:48;;;;;;;10.30;3.60;;;;;;;;;;4917499;29;20059;-83
2024/02/11 06:00:25;;;;;;;9.18;3.42;;;;;;;;;;4930499;29;20048;-83
2024/02/11 06:02:57;;;;;;;14.25;3.92;;;;;;;;;;4931401;29;20059;-84
2024/02/11 06:05:27;;;;;;;11.23;4.18;;;;;;;;;;4916799;29;20048;-84
2024/02/11 06:08:01;;;;;;;9.35;3.63;;;;;;;;;;4915953;29;20056;-84
2024/02/11 06:10:34;;;;;;;9.73;3.35;;;;;;;;;;4895798;29;20044;-84
2024/02/11 06:13:10;;;;;;;8.23;3.38;;;;;;;;;;4896623;29;20044;-84
2024/02/11 06:15:41;;;;;;;11.00;3.85;;;;;;;;;;4897397;29;20522;-84
2024/02/11 06:18:12;;;;;;;12.63;4.13;;;;;;;;;;4898412;29;20414;-83
2024/02/11 06:20:43;;;;;;;11.68;4.28;;;;;;;;;;4897789;29;20048;-83
2024/02/11 06:23:13;;;;;;;7.60;3.85;;;;;;;;;;4896903;29;20044;-84
2024/02/11 06:25:44;;;;;;;11.25;4.18;;;;;;;;;;4898434;29;20464;-83
2024/02/11 06:28:14;;;;;;;10.93;4.05;;;;;;;;;;4896427;29;20052;-83
2024/02/11 06:30:45;;;;;;;8.30;4.05;;;;;;;;;;4896944;29;20060;-83
2024/02/11 06:33:15;;;;;;;8.20;3.78;;;;;;;;;;4897299;29;20052;-83
2024/02/11 06:35:45;;;;;;;11.88;4.30;;;;;;;;;;4895869;29;20068;-83
2024/02/11 06:38:15;;;;;;;7.60;4.18;;;;;;;;;;4900672;29;20052;-83
2024/02/11 06:40:47;;;;;;;8.00;3.67;;;;;;;;;;4901177;29;20400;-84
2024/02/11 06:43:18;;;;;;;7.65;4.18;;;;;;;;;;4901822;29;20045;-83
2024/02/11 06:45:48;;;;;;;10.27;4.13;;;;;;;;;;4900354;29;20064;-83
2024/02/11 06:48:28;;;;;;;9.00;4.35;;;;;;;;;;4901826;29;20052;-83
2024/02/11 06:50:58;;;;;;;12.55;4.38;;;;;;;;;;4900042;29;20048;-83
2024/02/11 06:53:29;;;;;;;10.73;4.30;;;;;;;;;;4900952;29;20056;-84
2024/02/11 06:55:59;;;;;;;11.90;3.78;;;;;;;;;;4899858;29;20060;-84
2024/02/11 06:58:29;;;;;;;13.00;4.10;;;;;;;;;;4901030;29;20056;-83
2024/02/11 07:00:59;;;;;;;8.77;3.60;;;;;;;;;;4899678;29;20052;-84
2024/02/11 07:03:29;;;;;;;8.88;3.72;;;;;;;;;;4901092;29;20056;-83
2024/02/11 07:06:00;;;;;;;8.30;3.50;;;;;;;;;;4900864;29;20049;-83
2024/02/11 07:08:31;;;;;;;6.80;3.80;;;;;;;;;;4900444;29;20059;-83
2024/02/11 07:11:01;;;;;;;6.65;3.70;;;;;;;;;;4901377;29;20056;-84
2024/02/11 07:13:32;;;;;;;12.10;4.90;;;;;;;;;;4901701;29;20052;-81
2024/02/11 07:16:07;;;;;;;7.28;3.72;;;;;;;;;;4898986;29;20053;-81
2024/02/11 07:18:38;;;;;;;10.68;4.97;;;;;;;;;;4900863;29;20391;-83
2024/02/11 07:21:12;;;;;;;8.50;4.00;;;;;;;;;;4900878;29;20048;-83
2024/02/11 07:23:43;;;;;;;11.43;4.00;;;;;;;;;;4899405;29;20044;-83
2024/02/11 07:26:14;;;;;;;9.88;4.15;;;;;;;;;;4899975;29;20052;-83
2024/02/11 07:28:48;;;;;;;7.88;4.00;;;;;;;;;;4899641;29;20083;-83
2024/02/11 07:31:18;;;;;;;9.25;3.50;;;;;;;;;;4898653;29;20049;-84
2024/02/11 07:33:49;;;;;;;6.22;3.50;;;;;;;;;;4901047;29;20053;-83
2024/02/11 07:36:22;;;;;;;8.13;4.35;;;;;;;;;;4899938;29;20048;-83
2024/02/11 07:38:53;;;;;;;8.02;3.85;;;;;;;;;;4899618;29;20071;-83
2024/02/11 07:41:24;;;;;;;8.75;3.78;;;;;;;;;;4900274;29;20040;-83
2024/02/11 07:43:54;;;;;;;12.98;4.15;;;;;;;;;;4900800;29;20048;-83
2024/02/11 07:46:24;;;;;;;9.88;4.43;;;;;;;;;;4900967;29;20494;-83
2024/02/11 07:48:55;;;;;;;13.57;4.28;;;;;;;;;;4868384;29;20057;-83
2024/02/11 07:51:26;;;;;;;8.52;4.05;;;;;;;;;;4867273;29;20059;-83
2024/02/11 07:53:56;;;;;;;7.95;4.00;;;;;;;;;;4899543;29;20044;-83
2024/02/11 07:56:29;;;;;;;13.60;4.80;;;;;;;;;;4883573;29;20499;-83
2024/02/11 07:58:59;;;;;;;7.47;3.88;;;;;;;;;;4899742;29;20055;-83
2024/02/11 08:01:32;;;;;;;9.30;4.15;;;;;;;;;;4882588;29;20047;-83
2024/02/11 08:04:04;;;;;;;12.27;4.60;;;;;;;;;;4912524;29;20064;-84
2024/02/11 08:06:34;;;;;;;7.18;4.05;;;;;;;;;;4913729;29;20053;-83
2024/02/11 08:09:09;;;;;;;10.52;4.10;;;;;;;;;;4898614;29;20068;-82
2024/02/11 08:11:42;;;;;;;11.05;3.85;;;;;;;;;;4898790;29;20048;-83
2024/02/11 08:14:14;;;;;;;10.60;3.85;;;;;;;;;;4899364;29;20067;-83
2024/02/11 08:16:45;;;;;;;7.68;4.72;;;;;;;;;;4898726;29;20048;-83
2024/02/11 08:19:16;;;;;;;6.65;3.97;;;;;;;;;;4899112;29;20487;-83
2024/02/11 08:21:46;;;;;;;10.60;4.13;;;;;;;;;;4881601;29;20130;-83
2024/02/11 08:24:17;;;;;;;15.15;4.18;;;;;;;;;;4881273;29;20064;-83
2024/02/11 08:26:48;;;;;;;13.75;4.13;;;;;;;;;;4898147;29;20407;-83
2024/02/11 08:29:19;;;;;;;8.50;4.13;;;;;;;;;;4882651;29;20037;-84
2024/02/11 08:31:50;;;;;;;11.43;3.83;;;;;;;;;;4898216;29;20534;-83
2024/02/11 08:34:20;;;;;;;12.00;4.13;;;;;;;;;;4899249;29;20053;-83
2024/02/11 08:36:50;;;;;;;8.68;4.32;;;;;;;;;;4898572;29;20049;-83
2024/02/11 08:39:25;;;;;;;9.00;4.13;;;;;;;;;;4882510;29;20491;-83
2024/02/11 08:41:56;;;;;;;10.98;4.20;;;;;;;;;;4898606;29;20052;-84
2024/02/11 08:44:26;;;;;;;7.55;4.35;;;;;;;;;;4898672;29;20522;-83
2024/02/11 08:46:56;;;;;;;11.00;4.75;;;;;;;;;;4898697;29;20040;-82
2024/02/11 08:49:29;;;;;;;10.25;4.28;;;;;;;;;;4805375;29;2276471;-82
2024/02/11 08:51:59;;;;;;;15.68;5.15;;;;;;;;;;4899181;29;20059;-83
2024/02/11 08:54:30;;;;;;;9.65;4.93;;;;;;;;;;4899775;29;20049;-82
2024/02/11 08:57:00;;;;;;;9.43;4.28;;;;;;;;;;4898959;29;20056;-82
2024/02/11 08:59:31;;;;;;;16.38;4.50;;;;;;;;;;4898603;29;20044;-83
2024/02/11 09:02:02;;;;;;;11.43;4.22;;;;;;;;;;4898802;29;20208;-82
2024/02/11 09:04:34;;;;;;;9.02;4.35;;;;;;;;;;4898151;29;20041;-82
2024/02/11 09:07:09;;;;;;;11.25;4.90;;;;;;;;;;4899152;29;20048;-82
2024/02/11 09:09:39;;;;;;;7.78;4.15;;;;;;;;;;4898935;29;20384;-82
2024/02/11 09:12:10;;;;;;;9.02;4.47;;;;;;;;;;4898499;29;20052;-82
2024/02/11 09:14:41;;;;;;;8.90;4.20;;;;;;;;;;4899073;29;20053;-82
2024/02/11 09:17:12;;;;;;;7.93;4.50;;;;;;;;;;4898049;29;20071;-82
2024/02/11 09:19:42;;;;;;;14.02;4.78;;;;;;;;;;4898967;29;20057;-83
2024/02/11 09:22:12;;;;;;;10.18;5.15;;;;;;;;;;4898905;29;20068;-83
2024/02/11 09:24:42;;;;;;;7.15;4.22;;;;;;;;;;4898673;29;20502;-82
2024/02/11 09:27:12;;;;;;;10.77;4.38;;;;;;;;;;4882841;29;20369;-83
2024/02/11 09:29:44;;;;;;;9.52;5.20;;;;;;;;;;4912693;29;20055;-82
2024/02/11 09:32:14;;;;;;;;;;;;;;;;;;4881769;29;20389;-82
2024/02/11 09:34:46;;;;;;;10.00;4.45;;;;;;;;;;4898271;29;19923;-82
2024/02/11 09:37:16;;;;;;;8.13;4.35;;;;;;;;;;4898427;29;20060;-82
2024/02/11 09:39:46;;;;;;;8.23;4.78;;;;;;;;;;4898309;29;20058;-82
2024/02/11 09:42:20;;;;;;;13.13;4.72;;;;;;;;;;4898784;29;20057;-83
2024/02/11 09:44:53;;;;;;;9.93;4.50;;;;;;;;;;4898653;29;20041;-82
2024/02/11 09:47:25;;;;;;;9.02;4.57;;;;;;;;;;4899127;29;20056;-82
2024/02/11 09:50:00;;;;;;;7.95;4.30;;;;;;;;;;4898021;29;20060;-83
2024/02/11 09:52:31;;;;;;;10.73;4.70;;;;;;;;;;4882015;29;20055;-82
2024/02/11 09:55:03;;;;;;;7.15;4.22;;;;;;;;;;4898450;29;20483;-83
2024/02/11 09:57:34;;;;;;;9.60;4.47;;;;;;;;;;4898454;29;20343;-83
2024/02/11 10:00:07;;;;;;;7.82;4.13;;;;;;;;;;4898181;29;20048;-81
2024/02/11 10:02:39;;;;;;;12.85;4.20;;;;;;;;;;4874784;29;20045;-84
2024/02/11 10:05:12;;;;;;;;;;;;;;;;;;4907300;29;20060;-83
2024/02/11 10:07:45;;;;;;;10.80;4.57;;;;;;;;;;4896478;29;19938;-84
2024/02/11 10:10:16;;;;;;;9.82;4.13;;;;;;;;;;4896535;29;20391;-84
2024/02/11 10:12:48;;;;;;;11.65;4.72;;;;;;;;;;4896836;29;20048;-84
2024/02/11 10:15:20;;;;;;;7.53;4.05;;;;;;;;;;4894796;29;20060;-83
2024/02/11 10:17:50;;;;;;;10.55;4.82;;;;;;;;;;4897010;29;20061;-83
2024/02/11 10:20:22;;;;;;;9.15;4.45;;;;;;;;;;4897017;29;20057;-83
2024/02/11 10:22:53;;;;;;;9.30;4.65;;;;;;;;;;4898831;29;20072;-83
2024/02/11 10:25:23;;;;;;;11.10;4.95;;;;;;;;;;4897061;29;20068;-82
2024/02/11 10:27:55;;;;;;;12.65;4.55;;;;;;;;;;4895767;29;20053;-83
2024/02/11 10:30:27;;;;;;;7.82;4.28;;;;;;;;;;4897148;29;20048;-83
2024/02/11 10:32:59;;;;;;;9.55;4.40;;;;;;;;;;4880072;29;20365;-83
2024/02/11 10:35:29;;;;;;;;;;;;;;;;;;4879984;29;20055;-83
2024/02/11 10:37:59;;;;;;;9.35;3.85;;;;;;;;;;4879743;29;19923;-82
2024/02/11 10:40:31;;;;;;;8.52;4.07;;;;;;;;;;4895379;29;20047;-82
2024/02/11 10:43:05;;;;;;;12.68;3.70;;;;;;;;;;4891827;29;20044;-82
2024/02/11 10:45:35;;;;;;;9.05;3.47;;;;;;;;;;4896029;29;20044;-84
2024/02/11 10:48:05;;;;;;;6.82;3.42;;;;;;;;;;4896268;29;20068;-84
2024/02/11 10:50:36;;;;;;;9.65;3.55;;;;;;;;;;4920929;29;20056;-84
2024/02/11 10:53:09;;;;;;;7.90;4.22;;;;;;;;;;4915995;29;20048;-84
2024/02/11 10:55:45;;;;;;;8.75;4.25;;;;;;;;;;4900195;29;20059;-84
2024/02/11 10:58:18;;;;;;;7.82;3.38;;;;;;;;;;4899910;29;20059;-84
2024/02/11 11:00:56;;;;;;;7.78;4.13;;;;;;;;;;4916240;29;20479;-84
2024/02/11 11:03:29;;;;;;;7.63;3.25;;;;;;;;;;4916353;29;20040;-86
2024/02/11 11:06:01;;;;;;;9.32;3.05;;;;;;;;;;4888059;29;20053;-85
2024/02/11 11:08:32;;;;;;;11.65;4.25;;;;;;;;;;4896475;29;20041;-83
2024/02/11 11:11:02;;;;;;;6.45;3.30;;;;;;;;;;4897037;29;20060;-84
2024/02/11 11:13:33;;;;;;;8.80;3.25;;;;;;;;;;4895318;29;20064;-84
2024/02/11 11:16:08;;;;;;;9.80;3.35;;;;;;;;;;4896373;29;20041;-83
2024/02/11 11:18:47;;;;;;;8.13;2.80;;;;;;;;;;4895579;29;20049;-85
2024/02/11 11:21:17;;;;;;;6.57;2.85;;;;;;;;;;4911752;29;20400;-84
2024/02/11 11:23:51;;;;;;;5.00;2.58;;;;;;;;;;4897937;29;20052;-85
2024/02/11 11:26:22;;;;;;;7.55;2.65;;;;;;;;;;4900835;29;20347;-85
2024/02/11 11:28:52;;;;;;;7.85;2.65;;;;;;;;;;4892077;29;20079;-86
2024/02/11 11:31:23;;;;;;;8.38;2.83;;;;;;;;;;4887186;29;20052;-90
2024/02/11 11:33:54;;;;;;;7.65;2.45;;;;;;;;;;4912744;29;20422;-83
2024/02/11 11:36:25;;;;;;;7.22;2.80;;;;;;;;;;4899164;29;20071;-83
2024/02/11 11:39:14;;;;;;;4.95;2.65;;;;;;;;;;4900197;29;20060;-85
2024/02/11 11:41:45;;;;;;;7.45;2.65;;;;;;;;;;4883228;29;20056;-84
2024/02/11 11:44:22;;;;;;;5.88;2.55;;;;;;;;;;4900265;29;20067;-85
2024/02/11 11:46:54;;;;;;;5.20;2.40;;;;;;;;;;4900637;29;20060;-82
2024/02/11 11:49:24;;;;;;;;;;;;;;;;;;4888903;29;20064;-83
2024/02/11 11:51:58;;;;;;;4.68;2.50;;;;;;;;;;4881508;29;19924;-82
2024/02/11 11:54:31;;;;;;;8.18;2.55;;;;;;;;;;4865157;29;20044;-82
2024/02/11 11:57:05;;;;;;;4.90;2.50;;;;;;;;;;4881496;29;20041;-81
2024/02/11 11:59:35;;;;;;;4.35;2.40;;;;;;;;;;4881539;29;20414;-83
2024/02/11 12:02:05;;;;;;;5.78;2.42;;;;;;;;;;4879998;29;20052;-81
2024/02/11 12:04:37;;;;;;;5.97;2.50;;;;;;;;;;4875648;29;20491;-81
2024/02/11 12:07:09;;;;;;;5.72;2.28;;;;;;;;;;4877929;29;20041;-85
2024/02/11 12:09:41;;;;;;;5.65;2.17;;;;;;;;;;4878598;29;20041;-83
2024/02/11 12:12:13;;;;;;;5.65;2.83;;;;;;;;;;4878464;29;20061;-82
2024/02/11 12:14:43;;;;;;;4.32;2.40;;;;;;;;;;4880133;29;20048;-82
2024/02/11 12:17:15;;;;;;;5.03;2.35;;;;;;;;;;4880342;29;20049;-83
2024/02/11 12:19:48;;;;;;;4.68;2.45;;;;;;;;;;4879188;29;20056;-84
2024/02/11 12:22:18;;;;;;;3.70;1.83;;;;;;;;;;4880568;29;20049;-86
2024/02/11 12:24:54;;;;;;;8.15;2.17;;;;;;;;;;4880658;29;20392;-84
2024/02/11 12:27:51;;;;;;;4.63;2.20;;;;;;;;;;4880487;29;20407;-85
2024/02/11 12:30:25;;;;;;;5.78;2.20;;;;;;;;;;4879441;29;20510;-85
2024/02/11 12:32:57;;;;;;;2.85;2.00;;;;;;;;;;4879369;29;20064;-84
2024/02/11 12:35:29;;;;;;;5.20;2.10;;;;;;;;;;4880241;29;20053;-84
2024/02/11 12:37:59;;;;;;;;;;;;;;;;;;4879407;29;20052;-87
2024/02/11 12:40:29;;;;;;;5.32;2.13;;;;;;;;;;4879620;29;20401;-84
2024/02/11 12:43:00;;;;;;;5.03;2.58;;;;;;;;;;4879759;29;20049;-84
2024/02/11 12:45:32;;;;;;;9.30;2.25;;;;;;;;;;4881064;29;20535;-84
2024/02/11 12:48:03;;;;;;;3.33;2.05;;;;;;;;;;4881072;29;20049;-84
2024/02/11 12:50:35;;;;;;;5.43;2.10;;;;;;;;;;4907501;29;20060;-83
2024/02/11 12:53:05;;;;;;;4.25;1.98;;;;;;;;;;4917960;29;20048;-84
2024/02/11 12:55:35;;;;;;;4.80;2.72;;;;;;;;;;4896952;29;20407;-88
2024/02/11 12:58:05;;;;;;;4.07;1.90;;;;;;;;;;4897936;29;20547;-87
2024/02/11 13:00:36;;;;;;;4.93;1.80;;;;;;;;;;4898200;29;20045;-86
2024/02/11 13:03:08;;;;;;;5.40;2.58;;;;;;;;;;4898027;29;20056;-84
2024/02/11 13:05:38;;;;;;;4.60;2.03;;;;;;;;;;4896544;29;20067;-83
2024/02/11 13:08:09;;;;;;;5.78;2.00;;;;;;;;;;4897793;29;20531;-84
2024/02/11 13:10:41;;;;;;;4.70;2.30;;;;;;;;;;4897700;29;20408;-85
2024/02/11 13:13:13;;;;;;;4.60;2.10;;;;;;;;;;4881678;29;20048;-84
2024/02/11 13:15:46;;;;;;;6.10;2.00;;;;;;;;;;4869012;29;20056;-84
2024/02/11 13:18:50;;;;;;;8.48;2.00;;;;;;;;;;4895356;29;20076;-85
2024/02/11 13:21:25;;;;;;;3.78;1.48;;;;;;;;;;4881968;29;20061;-85
2024/02/11 13:23:56;;;;;;;3.53;1.70;;;;;;;;;;4897045;29;20049;-84
2024/02/11 13:26:26;;;;;;;2.88;1.45;;;;;;;;;;4880685;29;20052;-84
2024/02/11 13:28:56;;;;;;;2.88;1.60;;;;;;;;;;4897189;29;20048;-86
2024/02/11 13:31:26;;;;;;;3.05;1.85;;;;;;;;;;4880396;29;20117;-86
2024/02/11 13:33:57;;;;;;;2.58;1.80;;;;;;;;;;4880275;29;20052;-85
2024/02/11 13:36:28;;;;;;;;;;;;;;;;;;4911724;29;20060;-83
2024/02/11 13:38:58;;;;;;;2.72;1.83;;;;;;;;;;4879888;29;20409;-86
2024/02/11 13:41:29;;;;;;;3.78;1.70;;;;;;;;;;4897111;29;20056;-84
2024/02/11 13:43:59;;;;;;;4.68;1.80;;;;;;;;;;4896982;29;20502;-83
2024/02/11 13:46:29;;;;;;;3.03;1.23;;;;;;;;;;4897111;29;20491;-83
2024/02/11 13:48:59;;;;;;;2.50;1.77;;;;;;;;;;4879199;29;20052;-85
2024/02/11 13:51:30;;;;;;;4.28;2.60;;;;;;;;;;4896820;29;20049;-85
2024/02/11 13:54:01;;;;;;;9.25;2.70;;;;;;;;;;4880750;29;20052;-86
2024/02/11 13:56:34;;;;;;;3.03;1.80;;;;;;;;;;4878970;29;20052;-85
2024/02/11 13:59:04;;;;;;;4.38;1.95;;;;;;;;;;4880880;29;20056;-88
2024/02/11 14:01:36;;;;;;;5.85;2.22;;;;;;;;;;4896770;29;20051;-86
2024/02/11 14:04:08;;;;;;;3.03;1.80;;;;;;;;;;4880047;29;20053;-86
2024/02/11 14:06:38;;;;;;;3.53;1.90;;;;;;;;;;4880478;29;20530;-86
2024/02/11 14:09:08;;;;;;;4.05;1.75;;;;;;;;;;4897390;29;20060;-86
2024/02/11 14:11:40;;;;;;;2.58;1.67;;;;;;;;;;4910746;29;20142;-86
2024/02/11 14:14:15;;;;;;;3.85;1.67;;;;;;;;;;4897319;29;20064;-86
2024/02/11 14:16:47;;;;;;;2.03;1.38;;;;;;;;;;4895811;29;20056;-86
2024/02/11 14:19:18;;;;;;;6.22;1.60;;;;;;;;;;4895812;29;20053;-86
2024/02/11 14:21:49;;;;;;;3.80;1.50;;;;;;;;;;4889355;29;20765;-87
2024/02/11 14:24:20;;;;;;;3.20;1.50;;;;;;;;;;4896172;29;20045;-86
2024/02/11 14:26:51;;;;;;;4.25;1.42;;;;;;;;;;4895823;29;20060;-85
2024/02/11 14:29:21;;;;;;;4.97;1.63;;;;;;;;;;4879904;29;20061;-86
2024/02/11 14:31:53;;;;;;;3.83;1.65;;;;;;;;;;4897122;29;20511;-82
2024/02/11 14:34:23;;;;;;;3.55;1.50;;;;;;;;;;4897894;29;20054;-85
2024/02/11 14:36:54;;;;;;;5.25;1.52;;;;;;;;;;4878481;29;20443;-85
2024/02/11 14:39:26;;;;;;;3.15;1.27;;;;;;;;;;4897230;29;20044;-84
2024/02/11 14:41:56;;;;;;;4.88;1.50;;;;;;;;;;4897025;29;20045;-85
2024/02/11 14:44:26;;;;;;;3.80;1.52;;;;;;;;;;4880291;29;20060;-83
2024/02/11 14:46:56;;;;;;;6.00;1.52;;;;;;;;;;4896961;29;20499;-84
2024/02/11 14:49:27;;;;;;;3.97;1.90;;;;;;;;;;4897066;29;20055;-83
2024/02/11 14:51:58;;;;;;;4.43;1.70;;;;;;;;;;4897177;29;20044;-84
2024/02/11 14:54:29;;;;;;;2.97;1.65;;;;;;;;;;4895333;29;20052;-84
2024/02/11 14:56:59;;;;;;;5.25;1.75;;;;;;;;;;4896723;29;20055;-86
2024/02/11 14:59:29;;;;;;;6.30;1.80;;;;;;;;;;4899697;29;20071;-86
2024/02/11 15:02:00;;;;;;;2.88;1.75;;;;;;;;;;4883302;29;20052;-85
2024/02/11 15:04:31;;;;;;;3.17;1.45;;;;;;;;;;4900839;29;20055;-86
2024/02/11 15:07:03;;;;;;;3.28;1.38;;;;;;;;;;4883701;29;20048;-84
2024/02/11 15:09:34;;;;;;;2.88;1.33;;;;;;;;;;4900605;29;20059;-84
2024/02/11 15:12:08;;;;;;;3.40;1.35;;;;;;;;;;4900407;29;20052;-85
2024/02/11 15:14:40;;;;;;;3.13;1.75;;;;;;;;;;4901238;29;20044;-85
2024/02/11 15:17:16;;;;;;;3.75;1.50;;;;;;;;;;4901956;29;20055;-86
2024/02/11 15:19:46;;;;;;;4.05;1.50;;;;;;;;;;4868621;29;20053;-85
2024/02/11 15:22:17;;;;;;;2.55;1.33;;;;;;;;;;4901292;29;20056;-83
2024/02/11 15:24:48;;;;;;;2.83;1.38;;;;;;;;;;4900741;29;20044;-85
2024/02/11 15:27:19;;;;;;;3.45;1.30;;;;;;;;;;4884558;29;20053;-85
2024/02/11 15:29:50;;;;;;;2.85;1.52;;;;;;;;;;4883697;29;20056;-87
2024/02/11 15:32:20;;;;;;;3.20;1.30;;;;;;;;;;4900551;29;20055;-86
2024/02/11 15:34:51;;;;;;;2.78;1.50;;;;;;;;;;4900961;29;20487;-86
2024/02/11 15:37:32;;;;;;;5.63;1.67;;;;;;;;;;4900771;29;20051;-86